createdAt,value
2022-09-25T00:00:45.184Z,23.45
2022-09-25T00:02:45.193Z,23.40
2022-09-25T00:04:45.180Z,23.34
2022-09-25T00:06:45.105Z,23.39
2022-09-25T00:08:45.026Z,23.34
2022-09-25T00:10:45.175Z,23.44
2022-09-25T00:12:45.210Z,23.44
2022-09-25T00:14:45.211Z,23.40
2022-09-25T00:16:45.221Z,23.45
2022-09-25T00:18:45.055Z,23.35
2022-09-25T00:20:45.187Z,23.49
2022-09-25T00:22:45.224Z,23.48
2022-09-25T00:24:45.204Z,23.36
2022-09-25T00:26:45.246Z,23.49
2022-09-25T00:28:45.200Z,23.39
2022-09-25T00:30:45.246Z,23.43
2022-09-25T00:32:45.191Z,23.50
2022-09-25T00:34:45.174Z,23.37
2022-09-25T00:36:45.093Z,23.39
2022-09-25T00:38:45.082Z,23.37
2022-09-25T00:40:45.392Z,23.42
2022-09-25T00:42:45.232Z,23.42
2022-09-25T00:44:45.254Z,23.39
2022-09-25T00:46:45.250Z,23.37
2022-09-25T00:48:45.247Z,23.34
2022-09-25T00:50:45.263Z,23.52
2022-09-25T00:52:45.244Z,23.42
2022-09-25T00:54:45.296Z,23.34
2022-09-25T00:56:45.309Z,23.43
2022-09-25T00:58:45.234Z,23.42
2022-09-25T01:00:45.115Z,23.38
2022-09-25T01:02:45.351Z,23.39
2022-09-25T01:04:45.203Z,23.31
2022-09-25T01:06:45.118Z,23.41
2022-09-25T01:08:45.270Z,23.38
2022-09-25T01:10:45.186Z,23.26
2022-09-25T01:12:45.257Z,23.34
2022-09-25T01:14:45.158Z,23.31
2022-09-25T01:16:45.418Z,23.29
2022-09-25T01:18:45.156Z,23.42
2022-09-25T01:20:45.324Z,23.50
2022-09-25T01:22:45.221Z,23.38
2022-09-25T01:24:45.173Z,23.27
2022-09-25T01:26:45.292Z,23.45
2022-09-25T01:28:45.184Z,23.39
2022-09-25T01:30:45.325Z,23.38
2022-09-25T01:32:45.213Z,23.44
2022-09-25T01:34:45.279Z,23.34
2022-09-25T01:36:45.206Z,23.25
2022-09-25T01:38:45.310Z,23.25
2022-09-25T01:40:45.189Z,23.26
2022-09-25T01:42:45.251Z,23.29
2022-09-25T01:44:45.278Z,23.26
2022-09-25T01:46:45.219Z,23.33
2022-09-25T01:48:45.314Z,23.34
2022-09-25T01:50:45.214Z,23.36
2022-09-25T01:52:45.257Z,23.33
2022-09-25T01:54:45.328Z,23.24
2022-09-25T01:56:45.188Z,23.31
2022-09-25T01:58:45.310Z,23.22
2022-09-25T02:00:45.314Z,23.29
2022-09-25T02:02:45.380Z,23.42
2022-09-25T02:04:45.274Z,23.39
2022-09-25T02:06:45.234Z,23.45
2022-09-25T02:08:45.305Z,23.41
2022-09-25T02:10:45.306Z,23.45
2022-09-25T02:12:45.341Z,23.38
2022-09-25T02:14:45.322Z,23.42
2022-09-25T02:16:45.362Z,23.42
2022-09-25T02:18:45.336Z,23.34
2022-09-25T02:20:45.336Z,23.39
2022-09-25T02:22:45.353Z,23.36
2022-09-25T02:24:45.368Z,23.26
2022-09-25T02:26:45.358Z,23.30
2022-09-25T02:28:45.301Z,23.29
2022-09-25T02:30:45.401Z,23.31
2022-09-25T02:32:45.196Z,23.30
2022-09-25T02:34:45.350Z,23.20
2022-09-25T02:36:45.362Z,23.13
2022-09-25T02:38:45.347Z,23.25
2022-09-25T02:40:45.470Z,23.17
2022-09-25T02:42:45.343Z,23.28
2022-09-25T02:44:45.377Z,23.23
2022-09-25T02:46:45.250Z,23.25
2022-09-25T02:48:45.265Z,23.36
2022-09-25T02:50:45.458Z,23.22
2022-09-25T02:52:45.388Z,23.25
2022-09-25T02:54:45.217Z,23.26
2022-09-25T02:56:45.379Z,23.19
2022-09-25T02:58:45.283Z,23.25
2022-09-25T03:00:45.388Z,23.24
2022-09-25T03:02:51.335Z,23.15
2022-09-25T03:04:45.343Z,23.25
2022-09-25T03:06:45.383Z,23.25
2022-09-25T03:08:45.384Z,23.25
2022-09-25T03:10:45.341Z,23.25
2022-09-25T03:12:45.389Z,23.24
2022-09-25T03:14:45.402Z,23.25
2022-09-25T03:16:45.280Z,23.13
2022-09-25T03:18:45.357Z,23.15
2022-09-25T03:20:45.422Z,23.17
2022-09-25T03:22:45.395Z,23.26
2022-09-25T03:24:45.319Z,23.27
2022-09-25T03:26:45.418Z,23.31
2022-09-25T03:28:45.427Z,23.11
2022-09-25T03:30:45.471Z,23.24
2022-09-25T03:32:45.406Z,23.23
2022-09-25T03:34:45.288Z,23.05
2022-09-25T03:36:45.440Z,23.06
2022-09-25T03:38:45.431Z,23.01
2022-09-25T03:40:45.559Z,23.01
2022-09-25T03:42:45.316Z,23.20
2022-09-25T03:44:45.265Z,23.08
2022-09-25T03:46:45.449Z,23.10
2022-09-25T03:48:45.441Z,23.18
2022-09-25T03:50:45.437Z,23.20
2022-09-25T03:52:45.320Z,23.17
2022-09-25T03:54:45.445Z,23.10
2022-09-25T03:56:45.414Z,23.01
2022-09-25T03:58:45.469Z,23.16
2022-09-25T04:00:45.458Z,22.88
2022-09-25T04:02:45.532Z,22.96
2022-09-25T04:04:45.405Z,22.90
2022-09-25T04:06:45.339Z,22.96
2022-09-25T04:08:45.474Z,22.81
2022-09-25T04:10:45.466Z,22.82
2022-09-25T04:12:45.445Z,22.96
2022-09-25T04:14:45.471Z,22.92
2022-09-25T04:16:45.537Z,22.98
2022-09-25T04:18:45.316Z,23.04
2022-09-25T04:20:45.465Z,22.95
2022-09-25T04:22:45.487Z,23.04
2022-09-25T04:24:45.499Z,22.96
2022-09-25T04:26:45.515Z,22.95
2022-09-25T04:28:45.337Z,22.99
2022-09-25T04:30:45.480Z,23.10
2022-09-25T04:32:45.391Z,23.18
2022-09-25T04:34:45.376Z,23.16
2022-09-25T04:36:45.503Z,23.14
2022-09-25T04:38:45.479Z,23.10
2022-09-25T04:40:45.429Z,23.10
2022-09-25T04:42:45.411Z,22.98
2022-09-25T04:44:45.508Z,23.04
2022-09-25T04:46:45.596Z,23.00
2022-09-25T04:48:45.508Z,23.23
2022-09-25T04:50:45.513Z,23.05
2022-09-25T04:52:45.471Z,23.06
2022-09-25T04:54:45.522Z,23.09
2022-09-25T04:56:45.527Z,23.00
2022-09-25T04:58:45.423Z,23.02
2022-09-25T05:00:45.628Z,23.08
2022-09-25T05:02:45.522Z,23.06
2022-09-25T05:04:45.512Z,23.11
2022-09-25T05:06:45.517Z,23.10
2022-09-25T05:08:45.589Z,23.13
2022-09-25T05:10:45.374Z,23.06
2022-09-25T05:12:45.481Z,22.96
2022-09-25T05:14:45.454Z,22.96
2022-09-25T05:16:45.427Z,22.98
2022-09-25T05:18:45.343Z,23.01
2022-09-25T05:20:45.512Z,22.95
2022-09-25T05:22:45.494Z,23.05
2022-09-25T05:24:45.454Z,23.08
2022-09-25T05:26:45.427Z,23.06
2022-09-25T05:28:45.557Z,22.95
2022-09-25T05:30:45.542Z,22.96
2022-09-25T05:32:45.582Z,22.96
2022-09-25T05:34:45.476Z,23.05
2022-09-25T05:36:45.552Z,22.98
2022-09-25T05:38:45.429Z,23.15
2022-09-25T05:40:45.551Z,23.05
2022-09-25T05:42:45.538Z,23.19
2022-09-25T05:44:45.536Z,22.99
2022-09-25T05:46:45.576Z,23.03
2022-09-25T05:48:45.474Z,23.02
2022-09-25T05:50:45.428Z,22.92
2022-09-25T05:52:45.435Z,23.10
2022-09-25T05:54:45.618Z,22.98
2022-09-25T05:56:45.513Z,23.19
2022-09-25T05:58:45.568Z,23.11
2022-09-25T06:00:45.482Z,22.92
2022-09-25T06:02:45.710Z,22.97
2022-09-25T06:04:45.509Z,22.97
2022-09-25T06:06:45.623Z,23.03
2022-09-25T06:08:45.494Z,22.96
2022-09-25T06:10:45.598Z,23.03
2022-09-25T06:12:45.625Z,23.10
2022-09-25T06:14:45.519Z,23.03
2022-09-25T06:16:45.769Z,23.06
2022-09-25T06:18:45.581Z,23.04
2022-09-25T06:20:45.622Z,23.08
2022-09-25T06:22:45.576Z,23.01
2022-09-25T06:24:45.484Z,23.13
2022-09-25T06:26:45.619Z,23.05
2022-09-25T06:28:45.515Z,23.17
2022-09-25T06:30:45.592Z,23.17
2022-09-25T06:32:45.555Z,23.12
2022-09-25T06:34:45.542Z,23.17
2022-09-25T06:36:45.761Z,23.11
2022-09-25T06:38:45.575Z,23.03
2022-09-25T06:40:45.576Z,23.02
2022-09-25T06:42:45.610Z,23.09
2022-09-25T06:44:45.604Z,23.13
2022-09-25T06:46:45.693Z,23.17
2022-09-25T06:48:45.549Z,23.14
2022-09-25T06:50:45.578Z,23.09
2022-09-25T06:52:45.469Z,23.12
2022-09-25T06:54:45.608Z,23.10
2022-09-25T06:56:46.110Z,23.10
2022-09-25T06:58:45.639Z,23.15
2022-09-25T07:00:45.642Z,23.22
2022-09-25T07:02:45.946Z,23.20
2022-09-25T07:04:45.671Z,23.25
2022-09-25T07:06:45.582Z,23.22
2022-09-25T07:08:45.573Z,23.33
2022-09-25T07:10:45.880Z,23.38
2022-09-25T07:12:45.486Z,23.41
2022-09-25T07:14:45.567Z,23.50
2022-09-25T07:16:45.599Z,23.28
2022-09-25T07:18:45.674Z,23.53
2022-09-25T07:20:45.583Z,23.54
2022-09-25T07:22:45.623Z,23.53
2022-09-25T07:24:45.611Z,23.58
2022-09-25T07:26:45.690Z,23.57
2022-09-25T07:28:45.567Z,23.56
2022-09-25T07:30:45.649Z,23.55
2022-09-25T07:32:45.635Z,23.68
2022-09-25T07:34:45.711Z,23.62
2022-09-25T07:36:45.707Z,23.48
2022-09-25T07:38:45.685Z,23.66
2022-09-25T07:40:45.745Z,23.75
2022-09-25T07:42:45.682Z,23.75
2022-09-25T07:44:48.365Z,23.65
2022-09-25T07:46:45.631Z,23.61
2022-09-25T07:48:45.628Z,23.58
2022-09-25T07:50:45.704Z,23.65
2022-09-25T07:52:45.602Z,23.51
2022-09-25T07:54:45.742Z,23.53
2022-09-25T07:56:45.654Z,23.50
2022-09-25T07:58:45.697Z,23.65
2022-09-25T08:00:45.709Z,23.53
2022-09-25T08:02:45.741Z,23.50
2022-09-25T08:04:45.874Z,23.53
2022-09-25T08:06:45.756Z,23.42
2022-09-25T08:08:45.637Z,23.34
2022-09-25T08:10:45.963Z,23.39
2022-09-25T08:12:45.719Z,23.23
2022-09-25T08:14:45.643Z,23.24
2022-09-25T08:16:45.742Z,23.20
2022-09-25T08:18:45.745Z,23.25
2022-09-25T08:20:45.748Z,23.22
2022-09-25T08:22:45.759Z,23.20
2022-09-25T08:24:45.733Z,23.25
2022-09-25T08:26:45.646Z,23.25
2022-09-25T08:28:45.658Z,23.20
2022-09-25T08:30:45.819Z,23.23
2022-09-25T08:32:45.752Z,23.25
2022-09-25T08:34:45.804Z,23.24
2022-09-25T08:36:45.789Z,23.36
2022-09-25T08:38:45.922Z,23.39
2022-09-25T08:40:46.662Z,23.42
2022-09-25T08:42:45.754Z,23.53
2022-09-25T08:45:02.451Z,23.53
2022-09-25T08:46:45.781Z,23.59
2022-09-25T08:48:45.773Z,23.72
2022-09-25T08:50:45.662Z,23.78
2022-09-25T08:52:45.610Z,23.65
2022-09-25T08:54:45.968Z,23.72
2022-09-25T08:56:45.709Z,23.86
2022-09-25T08:58:45.667Z,23.84
2022-09-25T09:00:45.739Z,23.98
2022-09-25T09:02:45.848Z,23.97
2022-09-25T09:04:45.774Z,24.04
2022-09-25T09:06:53.075Z,24.04
2022-09-25T09:08:45.764Z,24.01
2022-09-25T09:10:45.743Z,23.93
2022-09-25T09:12:45.809Z,23.95
2022-09-25T09:14:45.781Z,24.00
2022-09-25T09:16:45.702Z,24.10
2022-09-25T09:18:45.838Z,24.25
2022-09-25T09:20:45.896Z,24.16
2022-09-25T09:22:45.750Z,24.30
2022-09-25T09:24:45.787Z,24.41
2022-09-25T09:26:45.717Z,24.57
2022-09-25T09:28:45.786Z,24.64
2022-09-25T09:30:45.910Z,24.67
2022-09-25T09:32:45.812Z,24.84
2022-09-25T09:35:04.738Z,24.80
2022-09-25T09:36:45.843Z,24.75
2022-09-25T09:38:45.783Z,24.59
2022-09-25T09:40:46.098Z,24.51
2022-09-25T09:42:45.845Z,24.62
2022-09-25T09:44:45.910Z,24.62
2022-09-25T09:46:45.835Z,24.55
2022-09-25T09:48:45.719Z,24.59
2022-09-25T09:50:51.390Z,24.59
2022-09-25T09:52:45.753Z,24.66
2022-09-25T09:54:45.863Z,24.51
2022-09-25T09:56:45.733Z,24.38
2022-09-25T09:58:45.888Z,24.27
2022-09-25T10:00:45.938Z,24.29
2022-09-25T10:02:46.034Z,24.12
2022-09-25T10:04:45.876Z,24.02
2022-09-25T10:06:45.870Z,23.86
2022-09-25T10:08:45.889Z,24.05
2022-09-25T10:10:45.751Z,23.95
2022-09-25T10:12:45.700Z,24.04
2022-09-25T10:14:45.789Z,23.97
2022-09-25T10:16:45.829Z,23.96
2022-09-25T10:18:45.761Z,24.00
2022-09-25T10:20:45.911Z,24.10
2022-09-25T10:22:45.717Z,24.12
2022-09-25T10:24:45.832Z,24.30
2022-09-25T10:26:45.858Z,24.37
2022-09-25T10:28:45.747Z,24.34
2022-09-25T10:30:45.949Z,24.23
2022-09-25T10:32:45.897Z,24.10
2022-09-25T10:34:45.902Z,24.02
2022-09-25T10:36:45.864Z,23.84
2022-09-25T10:38:45.819Z,23.89
2022-09-25T10:40:45.821Z,23.84
2022-09-25T10:42:45.873Z,23.96
2022-09-25T10:44:45.882Z,24.09
2022-09-25T10:46:45.852Z,24.11
2022-09-25T10:48:45.983Z,24.11
2022-09-25T10:50:45.869Z,24.11
2022-09-25T10:52:45.850Z,24.14
2022-09-25T10:54:46.378Z,24.10
2022-09-25T10:56:45.962Z,24.15
2022-09-25T10:58:45.933Z,24.12
2022-09-25T11:00:45.860Z,24.10
2022-09-25T11:02:45.950Z,24.22
2022-09-25T11:04:45.903Z,24.27
2022-09-25T11:06:45.838Z,24.35
2022-09-25T11:08:45.915Z,24.37
2022-09-25T11:10:45.957Z,24.41
2022-09-25T11:12:45.946Z,24.43
2022-09-25T11:14:45.915Z,24.48
2022-09-25T11:16:45.912Z,24.40
2022-09-25T11:18:45.937Z,24.48
2022-09-25T11:20:46.010Z,24.51
2022-09-25T11:22:45.943Z,24.58
2022-09-25T11:24:45.934Z,24.76
2022-09-25T11:26:45.942Z,24.86
2022-09-25T11:28:45.935Z,24.91
2022-09-25T11:30:45.871Z,24.97
2022-09-25T11:32:48.948Z,25.00
2022-09-25T11:34:45.948Z,25.18
2022-09-25T11:36:45.992Z,25.34
2022-09-25T11:38:46.010Z,25.37
2022-09-25T11:40:45.950Z,25.25
2022-09-25T11:42:45.955Z,24.95
2022-09-25T11:44:45.965Z,24.96
2022-09-25T11:46:45.974Z,24.95
2022-09-25T11:48:45.883Z,25.29
2022-09-25T11:50:45.980Z,25.29
2022-09-25T11:52:45.959Z,25.04
2022-09-25T11:54:45.845Z,25.04
2022-09-25T11:56:45.873Z,24.94
2022-09-25T11:58:45.990Z,24.82
2022-09-25T12:00:45.987Z,24.75
2022-09-25T12:02:46.031Z,24.68
2022-09-25T12:04:46.032Z,24.57
2022-09-25T12:06:46.074Z,23.10
2022-09-25T12:08:45.840Z,24.43
2022-09-25T12:10:45.994Z,24.42
2022-09-25T12:12:45.919Z,24.30
2022-09-25T12:14:45.971Z,24.21
2022-09-25T12:16:46.057Z,24.16
2022-09-25T12:18:46.006Z,24.32
2022-09-25T12:20:45.976Z,24.19
2022-09-25T12:22:45.858Z,23.88
2022-09-25T12:24:46.008Z,24.10
2022-09-25T12:26:45.931Z,24.05
2022-09-25T12:28:46.050Z,24.10
2022-09-25T12:30:46.119Z,23.96
2022-09-25T12:32:46.019Z,23.96
2022-09-25T12:34:46.042Z,24.01
2022-09-25T12:36:46.030Z,24.08
2022-09-25T12:38:45.994Z,24.06
2022-09-25T12:40:46.048Z,23.81
2022-09-25T12:42:46.006Z,23.91
2022-09-25T12:44:45.900Z,24.02
2022-09-25T12:46:46.052Z,24.12
2022-09-25T12:48:46.076Z,24.10
2022-09-25T12:50:46.039Z,24.10
2022-09-25T12:52:45.924Z,24.16
2022-09-25T12:54:45.973Z,24.10
2022-09-25T12:56:45.950Z,24.12
2022-09-25T12:58:45.939Z,24.04
2022-09-25T13:00:46.167Z,24.10
2022-09-25T13:02:45.948Z,24.10
2022-09-25T13:04:46.027Z,24.10
2022-09-25T13:06:46.129Z,24.10
2022-09-25T13:08:46.069Z,24.12
2022-09-25T13:10:46.033Z,24.11
2022-09-25T13:12:46.059Z,24.21
2022-09-25T13:14:46.051Z,24.16
2022-09-25T13:16:45.957Z,24.22
2022-09-25T13:18:46.073Z,24.18
2022-09-25T13:20:46.057Z,24.27
2022-09-25T13:22:46.051Z,24.28
2022-09-25T13:24:45.979Z,24.31
2022-09-25T13:26:46.160Z,24.40
2022-09-25T13:28:46.062Z,24.34
2022-09-25T13:30:46.043Z,24.43
2022-09-25T13:32:46.093Z,24.48
2022-09-25T13:34:46.094Z,24.48
2022-09-25T13:36:46.100Z,24.41
2022-09-25T13:38:46.066Z,24.41
2022-09-25T13:40:46.314Z,24.30
2022-09-25T13:42:46.050Z,24.37
2022-09-25T13:44:46.050Z,24.36
2022-09-25T13:46:46.141Z,24.43
2022-09-25T13:48:46.041Z,24.41
2022-09-25T13:50:46.087Z,24.52
2022-09-25T13:52:46.086Z,24.53
2022-09-25T13:54:46.066Z,24.39
2022-09-25T13:56:46.094Z,24.44
2022-09-25T13:58:45.989Z,24.48
2022-09-25T14:00:49.838Z,24.52
2022-09-25T14:02:46.122Z,24.43
2022-09-25T14:04:45.990Z,24.38
2022-09-25T14:06:46.120Z,24.38
2022-09-25T14:08:46.023Z,24.34
2022-09-25T14:10:46.121Z,24.33
2022-09-25T14:12:46.090Z,24.32
2022-09-25T14:14:46.074Z,24.50
2022-09-25T14:16:46.225Z,24.44
2022-09-25T14:18:47.563Z,24.66
2022-09-25T14:20:46.101Z,24.66
2022-09-25T14:22:46.143Z,24.73
2022-09-25T14:24:46.055Z,24.89
2022-09-25T14:26:46.069Z,24.44
2022-09-25T14:28:46.004Z,25.22
2022-09-25T14:30:46.109Z,25.23
2022-09-25T14:32:54.978Z,25.28
2022-09-25T14:34:46.017Z,25.84
2022-09-25T14:36:46.055Z,25.90
2022-09-25T14:38:46.046Z,25.45
2022-09-25T14:40:46.076Z,25.10
2022-09-25T14:42:46.189Z,24.87
2022-09-25T14:44:46.150Z,24.72
2022-09-25T14:46:46.165Z,24.22
2022-09-25T14:48:46.160Z,24.10
2022-09-25T14:50:46.163Z,24.47
2022-09-25T14:52:45.996Z,24.72
2022-09-25T14:54:46.188Z,25.07
2022-09-25T14:56:46.130Z,25.21
2022-09-25T14:58:46.231Z,25.23
2022-09-25T15:00:46.178Z,25.24
2022-09-25T15:02:46.349Z,25.19
2022-09-25T15:04:46.153Z,25.19
2022-09-25T15:06:46.137Z,25.09
2022-09-25T15:08:46.039Z,24.98
2022-09-25T15:10:46.248Z,24.95
2022-09-25T15:12:46.157Z,24.98
2022-09-25T15:14:46.020Z,24.97
2022-09-25T15:16:46.347Z,24.90
2022-09-25T15:18:46.165Z,24.90
2022-09-25T15:20:46.238Z,24.82
2022-09-25T15:22:46.172Z,24.60
2022-09-25T15:24:46.209Z,24.52
2022-09-25T15:26:46.213Z,24.50
2022-09-25T15:28:46.158Z,24.51
2022-09-25T15:30:46.208Z,24.44
2022-09-25T15:32:46.050Z,24.30
2022-09-25T15:34:46.206Z,24.36
2022-09-25T15:36:46.126Z,24.43
2022-09-25T15:38:46.214Z,24.28
2022-09-25T15:40:46.293Z,24.30
2022-09-25T15:42:46.178Z,24.40
2022-09-25T15:44:46.123Z,24.33
2022-09-25T15:46:46.148Z,24.38
2022-09-25T15:48:46.283Z,24.43
2022-09-25T15:50:46.232Z,24.42
2022-09-25T15:52:46.239Z,24.20
2022-09-25T15:54:46.153Z,24.28
2022-09-25T15:56:46.257Z,24.27
2022-09-25T15:58:46.102Z,24.25
2022-09-25T16:00:46.265Z,24.24
2022-09-25T16:02:51.208Z,24.20
2022-09-25T16:04:46.272Z,24.15
2022-09-25T16:06:46.204Z,24.15
2022-09-25T16:08:46.268Z,24.18
2022-09-25T16:10:49.878Z,24.10
2022-09-25T16:12:46.247Z,24.12
2022-09-25T16:14:46.282Z,24.23
2022-09-25T16:16:46.329Z,24.12
2022-09-25T16:18:46.223Z,24.16
2022-09-25T16:20:46.277Z,24.18
2022-09-25T16:22:46.285Z,24.16
2022-09-25T16:24:46.241Z,24.25
2022-09-25T16:26:46.309Z,24.18
2022-09-25T16:28:46.280Z,24.22
2022-09-25T16:30:46.315Z,24.14
2022-09-25T16:32:46.298Z,24.10
2022-09-25T16:34:46.261Z,24.10
2022-09-25T16:36:46.240Z,24.09
2022-09-25T16:38:46.246Z,24.11
2022-09-25T16:40:46.215Z,24.05
2022-09-25T16:42:46.275Z,23.96
2022-09-25T16:44:46.307Z,24.10
2022-09-25T16:46:46.312Z,23.97
2022-09-25T16:48:46.389Z,23.98
2022-09-25T16:50:46.314Z,23.91
2022-09-25T16:52:46.303Z,23.81
2022-09-25T16:54:46.333Z,23.87
2022-09-25T16:56:46.333Z,23.98
2022-09-25T16:58:46.294Z,24.05
2022-09-25T17:00:46.212Z,23.91
2022-09-25T17:02:46.274Z,23.91
2022-09-25T17:04:46.313Z,23.88
2022-09-25T17:06:46.305Z,23.99
2022-09-25T17:08:46.311Z,23.84
2022-09-25T17:10:46.327Z,23.81
2022-09-25T17:12:49.886Z,23.81
2022-09-25T17:14:46.193Z,23.81
2022-09-25T17:16:46.234Z,23.88
2022-09-25T17:18:46.315Z,23.83
2022-09-25T17:20:46.286Z,23.81
2022-09-25T17:22:46.358Z,23.81
2022-09-25T17:24:46.314Z,23.88
2022-09-25T17:26:46.327Z,23.86
2022-09-25T17:28:46.264Z,23.82
2022-09-25T17:30:46.383Z,23.79
2022-09-25T17:32:46.311Z,23.75
2022-09-25T17:34:46.312Z,23.83
2022-09-25T17:36:46.727Z,23.82
2022-09-25T17:38:46.363Z,23.77
2022-09-25T17:40:46.291Z,23.82
2022-09-25T17:42:46.319Z,23.79
2022-09-25T17:44:46.279Z,23.73
2022-09-25T17:46:46.391Z,23.72
2022-09-25T17:48:51.640Z,23.67
2022-09-25T17:50:46.351Z,23.72
2022-09-25T17:52:46.376Z,23.72
2022-09-25T17:54:46.355Z,23.78
2022-09-25T17:56:46.427Z,23.69
2022-09-25T17:58:46.308Z,23.64
2022-09-25T18:00:46.252Z,23.57
2022-09-25T18:02:46.460Z,23.53
2022-09-25T18:04:46.466Z,23.70
2022-09-25T18:06:46.352Z,23.57
2022-09-25T18:08:46.394Z,23.57
2022-09-25T18:10:46.423Z,23.70
2022-09-25T18:12:46.379Z,23.54
2022-09-25T18:14:46.444Z,23.61
2022-09-25T18:16:46.398Z,23.64
2022-09-25T18:18:46.232Z,23.53
2022-09-25T18:20:46.344Z,23.54
2022-09-25T18:22:46.395Z,23.58
2022-09-25T18:24:46.387Z,23.55
2022-09-25T18:26:46.448Z,23.53
2022-09-25T18:28:46.367Z,23.66
2022-09-25T18:30:46.465Z,23.61
2022-09-25T18:32:46.418Z,23.53
2022-09-25T18:34:46.291Z,23.61
2022-09-25T18:36:46.438Z,23.62
2022-09-25T18:38:46.467Z,23.50
2022-09-25T18:40:46.472Z,23.58
2022-09-25T18:42:46.346Z,23.58
2022-09-25T18:44:46.457Z,23.57
2022-09-25T18:46:46.446Z,23.58
2022-09-25T18:48:46.395Z,23.57
2022-09-25T18:50:46.260Z,23.65
2022-09-25T18:52:46.489Z,23.51
2022-09-25T18:54:46.277Z,23.47
2022-09-25T18:56:46.339Z,23.55
2022-09-25T18:58:46.555Z,23.45
2022-09-25T19:00:46.397Z,23.53
2022-09-25T19:02:46.642Z,23.53
2022-09-25T19:04:46.722Z,23.56
2022-09-25T19:06:46.277Z,23.49
2022-09-25T19:08:46.405Z,23.48
2022-09-25T19:10:46.441Z,23.48
2022-09-25T19:12:46.550Z,23.43
2022-09-25T19:14:46.496Z,23.34
2022-09-25T19:16:46.461Z,23.53
2022-09-25T19:18:46.462Z,23.53
2022-09-25T19:20:46.505Z,23.56
2022-09-25T19:22:46.530Z,23.50
2022-09-25T19:24:46.346Z,23.53
2022-09-25T19:26:46.351Z,23.53
2022-09-25T19:28:46.525Z,23.49
2022-09-25T19:30:46.589Z,23.51
2022-09-25T19:32:46.525Z,23.43
2022-09-25T19:34:46.442Z,23.42
2022-09-25T19:36:46.513Z,23.44
2022-09-25T19:38:46.466Z,23.34
2022-09-25T19:40:46.638Z,23.39
2022-09-25T19:42:46.511Z,23.37
2022-09-25T19:44:46.520Z,23.50
2022-09-25T19:46:46.471Z,23.40
2022-09-25T19:48:46.584Z,23.42
2022-09-25T19:50:46.360Z,23.43
2022-09-25T19:52:50.746Z,23.26
2022-09-25T19:54:46.511Z,23.41
2022-09-25T19:56:46.529Z,23.35
2022-09-25T19:58:46.499Z,23.36
2022-09-25T20:00:46.389Z,23.39
2022-09-25T20:02:46.659Z,23.33
2022-09-25T20:04:46.551Z,23.42
2022-09-25T20:06:46.549Z,23.44
2022-09-25T20:08:46.655Z,23.40
2022-09-25T20:10:46.727Z,23.38
2022-09-25T20:12:46.558Z,23.38
2022-09-25T20:14:46.930Z,23.36
2022-09-25T20:16:46.587Z,23.42
2022-09-25T20:18:46.656Z,23.39
2022-09-25T20:20:46.635Z,23.28
2022-09-25T20:22:46.720Z,23.38
2022-09-25T20:24:46.555Z,23.37
2022-09-25T20:26:46.594Z,23.27
2022-09-25T20:28:46.649Z,23.18
2022-09-25T20:30:46.712Z,23.39
2022-09-25T20:32:46.620Z,23.45
2022-09-25T20:34:46.602Z,23.40
2022-09-25T20:36:46.780Z,23.44
2022-09-25T20:38:46.823Z,23.43
2022-09-25T20:40:46.649Z,23.42
2022-09-25T20:42:46.569Z,23.39
2022-09-25T20:44:46.628Z,23.33
2022-09-25T20:46:46.513Z,23.47
2022-09-25T20:48:46.752Z,23.38
2022-09-25T20:50:46.841Z,23.33
2022-09-25T20:52:46.526Z,23.38
2022-09-25T20:54:46.580Z,23.37
2022-09-25T20:56:46.501Z,23.27
2022-09-25T20:58:50.647Z,23.29
2022-09-25T21:00:46.441Z,23.43
2022-09-25T21:02:46.603Z,23.34
2022-09-25T21:04:46.553Z,23.26
2022-09-25T21:06:46.488Z,23.38
2022-09-25T21:08:46.548Z,23.34
2022-09-25T21:10:46.591Z,23.37
2022-09-25T21:12:46.572Z,23.41
2022-09-25T21:14:46.483Z,23.38
2022-09-25T21:16:46.699Z,23.37
2022-09-25T21:18:46.447Z,23.30
2022-09-25T21:20:46.520Z,23.27
2022-09-25T21:22:46.533Z,23.18
2022-09-25T21:24:46.586Z,23.13
2022-09-25T21:26:46.620Z,23.24
2022-09-25T21:28:46.538Z,23.22
2022-09-25T21:30:46.646Z,23.25
2022-09-25T21:32:46.620Z,23.29
2022-09-25T21:34:46.565Z,23.30
2022-09-25T21:36:46.628Z,23.34
2022-09-25T21:38:46.577Z,23.25
2022-09-25T21:40:46.766Z,23.25
2022-09-25T21:42:46.690Z,23.25
2022-09-25T21:44:46.632Z,23.13
2022-09-25T21:46:46.626Z,23.16
2022-09-25T21:48:46.562Z,23.24
2022-09-25T21:50:46.642Z,23.10
2022-09-25T21:52:46.500Z,23.23
2022-09-25T21:54:46.611Z,23.22
2022-09-25T21:56:46.529Z,23.11
2022-09-25T21:58:46.679Z,22.95
2022-09-25T22:00:46.685Z,23.00
2022-09-25T22:02:46.605Z,23.11
2022-09-25T22:04:46.502Z,23.03
2022-09-25T22:06:46.659Z,23.25
2022-09-25T22:08:46.590Z,23.18
2022-09-25T22:10:46.666Z,23.27
2022-09-25T22:12:46.631Z,23.10
2022-09-25T22:14:46.545Z,23.16
2022-09-25T22:16:46.806Z,23.02
2022-09-25T22:18:46.619Z,23.11
2022-09-25T22:20:46.650Z,23.21
2022-09-25T22:22:46.662Z,23.05
2022-09-25T22:24:46.582Z,23.26
2022-09-25T22:26:46.673Z,23.26
2022-09-25T22:28:46.667Z,23.27
2022-09-25T22:30:46.635Z,23.19
2022-09-25T22:32:46.682Z,23.24
2022-09-25T22:34:46.682Z,23.06
2022-09-25T22:36:46.673Z,23.09
2022-09-25T22:38:46.674Z,23.25
2022-09-25T22:40:46.747Z,23.23
2022-09-25T22:42:46.667Z,23.11
2022-09-25T22:44:46.676Z,23.16
2022-09-25T22:46:46.651Z,23.15
2022-09-25T22:48:46.703Z,23.12
2022-09-25T22:50:46.605Z,23.23
2022-09-25T22:52:46.756Z,23.01
2022-09-25T22:54:46.678Z,23.06
2022-09-25T22:56:46.615Z,23.09
2022-09-25T22:58:46.618Z,23.11
2022-09-25T23:00:46.622Z,23.10
2022-09-25T23:02:46.555Z,23.18
2022-09-25T23:04:46.692Z,23.24
2022-09-25T23:06:46.721Z,23.10
2022-09-25T23:08:46.695Z,23.26
2022-09-25T23:11:06.302Z,23.23
2022-09-25T23:12:46.631Z,23.12
2022-09-25T23:14:46.682Z,23.05
2022-09-25T23:16:46.706Z,23.09
2022-09-25T23:18:46.770Z,23.07
2022-09-25T23:20:46.594Z,23.10
2022-09-25T23:22:46.687Z,23.09
2022-09-25T23:24:46.575Z,23.07
2022-09-25T23:26:46.773Z,23.13
2022-09-25T23:28:46.772Z,23.11
2022-09-25T23:30:46.807Z,23.04
2022-09-25T23:32:46.741Z,23.17
2022-09-25T23:34:46.608Z,23.17
2022-09-25T23:36:46.815Z,23.06
2022-09-25T23:38:46.719Z,23.12
2022-09-25T23:40:46.670Z,23.12
2022-09-25T23:42:46.650Z,23.15
2022-09-25T23:44:46.768Z,23.09
2022-09-25T23:46:46.737Z,23.06
2022-09-25T23:48:46.766Z,23.06
2022-09-25T23:50:46.686Z,23.19
2022-09-25T23:52:46.697Z,23.14
2022-09-25T23:54:46.802Z,22.99
2022-09-25T23:56:46.672Z,23.04
2022-09-25T23:58:46.805Z,23.17
